Main page
METAR-TAF:

METAR-TAF

Airports :

Cuatro Vientos Airport

Madrid-Cuatro Vientos, Spain

latitude: 40-23N, longitude: 003-47W, elevation: 690 m

Current weather observation

The report was made 24 minutes ago, at 21:00 UTC
Wind 5 kt from the North/Northeast, varying between West/Northwest and East
Temperature 6°C
Humidity 39%
Pressure 1025 hPa
Visibility 10 km or more
no clouds below 1500 m and no cumulonimbus

METAR: LEVS 212100Z AUTO 03005KT 290V080 CAVOK 06/M07 Q1025

Time: 22:24 (21:24 UTC)

Forecast

The report was made 4 hours and 24 minutes ago, at 17:00 UTC
Forecast valid from 21 at 18 UTC to 22 at 18 UTC
Wind 5 kt from the North/Northeast
Visibility 10 km or more
no clouds below 1500 m and no cumulonimbus

TAF: LEVS 211700Z 2118/2218 03005KT CAVOK TX10/2215Z TNM01/2208Z

Weather observations and forecasts of more than 4000 airports (METAR and TAF reports).

The available stations are represented by yellow and red dots on the map.

Hover mouse over dot to see the name of the station.

Then click to see weather observations and forecasts.

To change the map : click on the green buttons with a black cross to zoom in, on the green button with a dash to zoom out, or on the green arrows for adjacent maps.


METAR-TAF: